NOTL Lakeshore

*Note: All times are displayed in the local standard time of the station location.
**Rain - Equipment is designed to accurately record liquid precipitation; under conditions when precipitation is not in liquid form, the data displayed may not properly reflect rainfall values.

Date Max Temp
(°C)
Min Temp
(°C)
Avg Temp
(°C)
Rain (mm) Avg RH (%)
Thu, Oct 17, 2019 9.8 8.2 9.0 0.0 76.4
Wed, Oct 16, 2019 15.8 6.8 11.0 15.2 82.0
Tue, Oct 15, 2019 16.9 2.4 9.1 0.0 71.8
Mon, Oct 14, 2019 13.0 3.4 8.9 0.2 66.6
Sun, Oct 13, 2019 18.8 3.2 11.4 0.2 60.8
Sat, Oct 12, 2019 15.2 2.1 11.1 1.0 73.4
Fri, Oct 11, 2019 20.5 4.1 12.6 0.0 73.1
DateTime Avg Temp (°C) Rain (mm) RH (%)
Fri, Oct 18, 2019 12:00 9.6 0.0 61.3
Fri, Oct 18, 2019 11:00 8.7 0.0 63.9
Fri, Oct 18, 2019 10:00 7.6 0.0 69.2
Fri, Oct 18, 2019 09:00 7.6 0.0 70.6
Fri, Oct 18, 2019 08:00 7.6 0.0 71.8
Fri, Oct 18, 2019 07:00 7.9 0.0 70.5
Fri, Oct 18, 2019 06:00 8.1 0.0 69.4
Fri, Oct 18, 2019 05:00 8.1 0.0 69.5
Fri, Oct 18, 2019 04:00 8.4 0.0 65.2
Fri, Oct 18, 2019 03:00 8.5 0.0 63.8
Fri, Oct 18, 2019 02:00 8.4 0.0 66.2
Fri, Oct 18, 2019 01:00 8.4 0.0 67.2
Fri, Oct 18, 2019 00:00 8.7 0.0 68.8
Thu, Oct 17, 2019 23:00 8.9 0.0 69.7
Thu, Oct 17, 2019 22:00 9.0 0.0 70.1
Thu, Oct 17, 2019 21:00 8.9 0.0 72.3
Thu, Oct 17, 2019 20:00 8.9 0.0 73.4
Thu, Oct 17, 2019 19:00 8.7 0.0 74.8
Thu, Oct 17, 2019 18:00 8.8 0.0 75.2
Thu, Oct 17, 2019 17:00 9.0 0.0 74.5
Thu, Oct 17, 2019 16:00 9.4 0.0 74.0
Thu, Oct 17, 2019 15:00 9.5 0.0 72.8
Thu, Oct 17, 2019 14:00 9.1 0.0 77.3
Thu, Oct 17, 2019 13:00 9.3 0.0 75.1
Thu, Oct 17, 2019 12:00 9.1 0.0 76.2
Thu, Oct 17, 2019 11:00 9.0 0.0 77.4
Thu, Oct 17, 2019 10:00 8.9 0.0 78.3
Thu, Oct 17, 2019 09:00 8.4 0.0 82.3
Thu, Oct 17, 2019 08:00 8.7 0.0 77.7
Thu, Oct 17, 2019 07:00 8.9 0.0 77.4
Thu, Oct 17, 2019 06:00 9.4 0.0 81.1
Thu, Oct 17, 2019 05:00 8.9 0.0 82.7
Thu, Oct 17, 2019 04:00 9.0 0.0 78.1
Thu, Oct 17, 2019 03:00 9.7 0.0 78.2
Thu, Oct 17, 2019 02:00 9.7 0.0 83.1
Thu, Oct 17, 2019 01:00 9.5 0.0 82.5
Thu, Oct 17, 2019 00:00 9.5 0.0 82.2
Wed, Oct 16, 2019 23:00 8.5 0.0 86.6
Wed, Oct 16, 2019 22:00 8.7 0.0 87.0
Wed, Oct 16, 2019 21:00 8.0 0.0 93.7
Wed, Oct 16, 2019 20:00 7.2 0.0 93.9
Wed, Oct 16, 2019 19:00 8.8 0.0 84.3
Wed, Oct 16, 2019 18:00 10.8 0.0 80.5
Wed, Oct 16, 2019 17:00 10.1 0.0 90.0
Wed, Oct 16, 2019 16:00 9.3 1.8 93.0
Wed, Oct 16, 2019 15:00 10.5 0.2 92.8
Wed, Oct 16, 2019 14:00 10.2 0.6 91.0
Wed, Oct 16, 2019 13:00 10.1 1.2 93.5


asterix Register now to access more data! asterix